Time;durP1;ratioP1;P1;durP2;ratioP2;P2;SDS_P1;SDS_P2;PMS_P1;PMS_P2;Temp;Humidity;BMP_temperature;BMP_pressure;BME280_temperature;BME280_humidity;BME280_pressure;Samples;Min_cycle;Max_cycle;Signal;HPM_P1;HPM_P2
2023/08/28 00:02:25;;;;;;;;;;;;;;;27.56;61.29;100345.91;7400883;19;1805;-52
2023/08/28 00:04:53;;;;;;;;;;;;;;;27.52;61.50;100347.38;7399976;19;1483;-51
2023/08/28 00:07:22;;;;;;;;;;;;;;;27.53;61.59;100346.31;7400002;19;1514;-53
2023/08/28 00:09:50;;;;;;;;;;;;;;;27.52;61.29;100344.66;7401053;19;1451;-51
2023/08/28 00:12:23;;;;;;;;;;;;;;;27.48;61.26;100337.94;7401974;19;1662;-52
2023/08/28 00:14:51;;;;;;;;;;;;;;;27.51;61.22;100351.94;7398425;19;1832;-52
2023/08/28 00:17:20;;;;;;;;;;;;;;;27.56;61.11;100345.91;7398101;19;1857;-52
2023/08/28 00:19:48;;;;;;;;;;;;;;;27.55;61.34;100368.66;7400308;19;1732;-52
2023/08/28 00:22:16;;;;;;;;;;;;;;;27.55;61.19;100349.66;7401007;19;1777;-51
2023/08/28 00:24:45;;;;;;;;;;;;;;;27.54;61.40;100343.41;7399985;19;1716;-53
2023/08/28 00:27:14;;;;;;;;;;;;;;;27.57;61.13;100353.00;7400869;19;1725;-52
2023/08/28 00:29:45;;;;;;;;;;;;;;;27.56;61.10;100352.19;7400737;19;1498;-53
2023/08/28 00:32:13;;;;;;;;;;;;;;;27.55;61.36;100345.06;7399404;19;1621;-53
2023/08/28 00:34:41;;;;;;;;;;;;;;;27.56;61.33;100352.19;7399790;19;1807;-53
2023/08/28 00:37:10;;;;;;;;;;;;;;;27.52;61.28;100350.09;7398147;19;1860;-52
2023/08/28 00:39:38;;;;;;;;;;;;;;;27.51;61.18;100345.69;7399065;19;1526;-52
2023/08/28 00:42:07;;;;;;;;;;;;;;;27.52;61.41;100344.66;7399336;19;1328;-52
2023/08/28 00:44:35;;;;;;;;;;;;;;;27.54;61.42;100342.56;7398032;19;1711;-52
2023/08/28 00:47:10;;;;;;;;;;;;;;;27.54;61.21;100348.00;7397709;19;1807;-52
2023/08/28 00:49:39;;;;;;;;;;;;;;;27.53;61.34;100357.19;7399860;19;1760;-53
2023/08/28 00:52:08;;;;;;;;;;;;;;;27.54;61.29;100348.00;7399218;19;1432;-52
2023/08/28 00:54:36;;;;;;;;;;;;;;;27.56;61.07;100346.75;7398800;19;1736;-52
2023/08/28 00:57:05;;;;;;;;;;;;;;;27.55;61.08;100349.66;7397553;19;1832;-53
2023/08/28 00:59:33;;;;;;;;;;;;;;;27.52;61.29;100347.38;7399848;19;1420;-51
2023/08/28 01:02:04;;;;;;;;;;;;;;;27.51;61.44;100348.38;7398480;19;1752;-52
2023/08/28 01:04:35;;;;;;;;;;;;;;;27.46;61.38;100361.75;7400040;19;1804;-52
2023/08/28 01:07:08;;;;;;;;;;;;;;;27.46;61.19;100337.31;7398101;19;1515;-53
2023/08/28 01:09:42;;;;;;;;;;;;;;;27.45;61.44;100349.19;7398133;19;1673;-52
2023/08/28 01:12:15;;;;;;;;;;;;;;;27.48;61.68;100351.53;7398680;19;1388;-52
2023/08/28 01:14:49;;;;;;;;;;;;;;;27.42;61.61;100344.19;7398709;19;1814;-52
2023/08/28 01:17:19;;;;;;;;;;;;;;;27.43;61.52;100341.25;7396239;19;1864;-52
2023/08/28 01:19:50;;;;;;;;;;;;;;;27.42;61.66;100344.19;7397245;19;1780;-52
2023/08/28 01:22:23;;;;;;;;;;;;;;;27.48;61.28;100338.78;7398591;19;1805;-52
2023/08/28 01:24:52;;;;;;;;;;;;;;;27.45;61.27;100339.16;7398433;19;1743;-52
2023/08/28 01:27:23;;;;;;;;;;;;;;;27.45;61.27;100344.59;7398348;19;1745;-52
2023/08/28 01:30:06;;;;;;;;;;;;;;;27.44;61.46;100347.53;7399902;19;1026;-52
2023/08/28 01:32:34;;;;;;;;;;;;;;;27.47;61.31;100361.53;7398588;19;1736;-51
2023/08/28 01:35:04;;;;;;;;;;;;;;;27.43;61.39;100335.81;7398063;19;1558;-51
2023/08/28 01:37:36;;;;;;;;;;;;;;;27.41;61.30;100334.34;7396743;19;1845;-51
2023/08/28 01:40:06;;;;;;;;;;;;;;;27.44;61.61;100337.50;7397365;19;2148;-51
2023/08/28 01:42:37;;;;;;;;;;;;;;;27.41;61.56;100339.78;7399084;19;1693;-52
2023/08/28 01:45:06;;;;;;;;;;;;;;;27.41;61.53;100346.03;7397326;19;1792;-52
2023/08/28 01:47:34;;;;;;;;;;;;;;;27.40;61.44;100324.53;7396946;19;1734;-53
2023/08/28 01:50:02;;;;;;;;;;;;;;;27.37;61.52;100339.34;7396413;19;1859;-52
2023/08/28 01:52:31;;;;;;;;;;;;;;;27.36;61.78;100324.09;7395075;19;1368;-53
2023/08/28 01:54:59;;;;;;;;;;;;;;;27.35;61.61;100325.97;7396542;19;1904;-52
2023/08/28 01:57:27;;;;;;;;;;;;;;;27.40;61.25;100319.09;7396187;19;1844;-52
2023/08/28 01:59:58;;;;;;;;;;;;;;;27.42;61.41;100323.28;7397469;19;1713;-52
2023/08/28 02:02:26;;;;;;;;;;;;;;;27.45;61.26;100327.47;7396484;19;1752;-51
2023/08/28 02:04:55;;;;;;;;;;;;;;;27.37;61.46;100326.59;7398589;19;1807;-52
2023/08/28 02:07:23;;;;;;;;;;;;;;;27.35;61.47;100315.09;7396942;19;1503;-53
2023/08/28 02:09:51;;;;;;;;;;;;;;;27.34;61.58;100313.44;7397002;19;1776;-52
2023/08/28 02:12:20;;;;;;;;;;;;;;;27.35;61.52;100309.66;7396717;19;1357;-53
2023/08/28 02:14:48;;;;;;;;;;;;;;;27.32;61.70;100295.69;7396706;19;1685;-52
2023/08/28 02:17:19;;;;;;;;;;;;;;;27.35;61.57;100293.38;7394577;19;1833;-52
2023/08/28 02:19:47;;;;;;;;;;;;;;;27.32;61.58;100320.94;7396020;19;1741;-51
2023/08/28 02:22:15;;;;;;;;;;;;;;;27.36;61.56;100314.06;7396330;19;1725;-53
2023/08/28 02:24:44;;;;;;;;;;;;;;;27.34;61.37;100307.19;7396527;19;1765;-52
2023/08/28 02:27:12;;;;;;;;;;;;;;;27.34;61.50;100307.19;7396028;19;1936;-51
2023/08/28 02:29:40;;;;;;;;;;;;;;;27.32;61.57;100307.38;7396676;19;1448;-51
2023/08/28 02:32:08;;;;;;;;;;;;;;;27.31;61.42;100294.00;7395017;19;1432;-52
2023/08/28 02:34:39;;;;;;;;;;;;;;;27.30;61.57;100287.75;7395447;19;1557;-52
2023/08/28 02:37:08;;;;;;;;;;;;;;;27.31;61.42;100302.97;7395495;19;1846;-53
2023/08/28 02:39:36;;;;;;;;;;;;;;;27.32;61.44;100301.94;7394569;19;1478;-51
2023/08/28 02:42:05;;;;;;;;;;;;;;;27.27;61.61;100304.41;7396181;19;1225;-51
2023/08/28 02:44:33;;;;;;;;;;;;;;;27.29;61.70;100296.91;7395340;19;1541;-51
2023/08/28 02:47:01;;;;;;;;;;;;;;;27.30;61.76;100308.63;7393722;19;1629;-51
2023/08/28 02:49:29;;;;;;;;;;;;;;;27.34;61.62;100309.91;7395472;19;1776;-51
2023/08/28 02:52:00;;;;;;;;;;;;;;;27.30;61.46;100303.19;7394908;19;1471;-52
2023/08/28 02:54:29;;;;;;;;;;;;;;;27.33;61.52;100298.19;7395241;19;1407;-52
2023/08/28 02:56:57;;;;;;;;;;;;;;;27.38;61.12;100301.13;7394618;19;1859;-51
2023/08/28 02:59:25;;;;;;;;;;;;;;;27.36;61.25;100297.78;7395472;19;1154;-51
2023/08/28 03:01:53;;;;;;;;;;;;;;;27.35;61.42;100301.53;7396197;19;1558;-52
2023/08/28 03:04:22;;;;;;;;;;;;;;;27.38;61.33;100300.31;7395805;19;1486;-51
2023/08/28 03:06:50;;;;;;;;;;;;;;;27.40;61.37;100308.22;7402274;19;1503;-51
2023/08/28 03:09:21;;;;;;;;;;;;;;;27.35;61.38;100297.97;7401980;19;1478;-51
2023/08/28 03:11:49;;;;;;;;;;;;;;;27.35;61.44;100301.53;7398715;19;1394;-52
2023/08/28 03:14:18;;;;;;;;;;;;;;;27.36;61.08;100297.78;7400848;19;1961;-53
2023/08/28 03:16:46;;;;;;;;;;;;;;;27.32;61.40;100288.38;7401145;19;1725;-51
2023/08/28 03:19:14;;;;;;;;;;;;;;;27.32;61.43;100299.22;7397867;19;1844;-52
2023/08/28 03:21:43;;;;;;;;;;;;;;;27.33;61.04;100298.19;7402038;19;1954;-52
2023/08/28 03:24:11;;;;;;;;;;;;;;;27.29;61.43;100296.91;7402755;19;1571;-52
2023/08/28 03:26:42;;;;;;;;;;;;;;;27.29;61.40;100294.19;7403051;19;1673;-51
2023/08/28 03:29:10;;;;;;;;;;;;;;;27.32;61.39;100301.13;7401863;19;1708;-52
2023/08/28 03:31:38;;;;;;;;;;;;;;;27.31;61.18;100315.72;7401664;19;1674;-52
2023/08/28 03:34:07;;;;;;;;;;;;;;;27.35;61.42;100312.38;7401944;19;1447;-52
2023/08/28 03:36:35;;;;;;;;;;;;;;;27.27;61.20;100303.59;7402215;19;1466;-51
2023/08/28 03:39:03;;;;;;;;;;;;;;;27.31;61.41;100326.56;7399838;19;1863;-52
2023/08/28 03:41:32;;;;;;;;;;;;;;;27.26;61.30;100321.75;7401288;19;1868;-51
2023/08/28 03:44:03;;;;;;;;;;;;;;;27.34;61.03;100321.59;7401775;19;1412;-51
2023/08/28 03:46:31;;;;;;;;;;;;;;;27.30;61.42;100336.59;7400565;19;1459;-53
2023/08/28 03:48:59;;;;;;;;;;;;;;;27.30;61.18;100320.31;7400804;19;1396;-52
2023/08/28 03:51:28;;;;;;;;;;;;;;;27.29;61.23;100324.06;7402159;19;1736;-50
2023/08/28 03:53:56;;;;;;;;;;;;;;;27.31;61.15;100330.13;7398111;19;1911;-51
2023/08/28 03:56:25;;;;;;;;;;;;;;;27.25;61.20;100322.78;7400903;19;1554;-52
2023/08/28 03:58:53;;;;;;;;;;;;;;;27.27;61.26;100337.00;7396066;19;1935;-51
2023/08/28 04:01:24;;;;;;;;;;;;;;;27.26;61.35;100343.47;7401288;19;1739;-52
2023/08/28 04:03:52;;;;;;;;;;;;;;;27.27;61.57;100326.13;7402225;19;1713;-51
2023/08/28 04:06:21;;;;;;;;;;;;;;;27.26;61.36;100332.63;7400708;19;1923;-51
2023/08/28 04:08:50;;;;;;;;;;;;;;;27.33;61.28;100346.22;7400799;19;1717;-51
2023/08/28 04:11:18;;;;;;;;;;;;;;;27.30;61.30;100342.03;7400268;19;1751;-52
2023/08/28 04:13:48;;;;;;;;;;;;;;;27.31;61.08;100340.16;7400329;19;1427;-51
2023/08/28 04:16:18;;;;;;;;;;;;;;;27.50;60.69;100341.31;7399122;19;1852;-51
2023/08/28 04:18:49;;;;;;;;;;;;;;;28.20;59.01;100324.78;7400376;19;1984;-50
2023/08/28 04:21:17;;;;;;;;;;;;;;;29.22;56.09;100350.72;7400895;19;1805;-52
2023/08/28 04:23:45;;;;;;;;;;;;;;;29.45;55.30;100338.50;7400892;19;1950;-51
2023/08/28 04:26:14;;;;;;;;;;;;;;;28.65;57.19;100330.47;7399759;19;1904;-51
2023/08/28 04:28:42;;;;;;;;;;;;;;;27.93;59.01;100351.91;7400032;19;1799;-51
2023/08/28 04:31:10;;;;;;;;;;;;;;;27.53;60.13;100330.00;7399633;19;1556;-52
2023/08/28 04:33:39;;;;;;;;;;;;;;;27.35;60.90;100334.09;7400106;19;1396;-51
2023/08/28 04:36:10;;;;;;;;;;;;;;;27.32;60.92;100342.66;7400429;19;1977;-51
2023/08/28 04:38:38;;;;;;;;;;;;;;;27.26;61.25;100334.50;7398252;19;1909;-52
2023/08/28 04:41:06;;;;;;;;;;;;;;;27.37;60.95;100351.03;7399650;19;1726;-52
2023/08/28 04:43:35;;;;;;;;;;;;;;;27.96;59.28;100343.38;7399291;19;1732;-51
2023/08/28 04:46:03;;;;;;;;;;;;;;;28.50;57.99;100336.97;7399960;19;1389;-51
2023/08/28 04:48:31;;;;;;;;;;;;;;;28.43;58.08;100344.28;7399308;19;1901;-51
2023/08/28 04:51:00;;;;;;;;;;;;;;;28.09;58.72;100347.97;7399899;19;1753;-52
2023/08/28 04:53:30;;;;;;;;;;;;;;;27.77;59.74;100347.66;7400309;19;1828;-50
2023/08/28 04:55:59;;;;;;;;;;;;;;;27.57;60.27;100343.00;7399400;19;1887;-51
2023/08/28 04:58:27;;;;;;;;;;;;;;;27.55;60.35;100344.22;7397775;19;1847;-51
2023/08/28 05:00:55;;;;;;;;;;;;;;;27.51;60.32;100343.78;7399444;19;1468;-50
2023/08/28 05:03:24;;;;;;;;;;;;;;;27.52;60.39;100352.81;7398426;19;1749;-50
2023/08/28 05:05:52;;;;;;;;;;;;;;;27.53;60.37;100352.56;7399949;19;1787;-51
2023/08/28 05:08:20;;;;;;;;;;;;;;;27.64;60.29;100359.31;7399088;19;1820;-51
2023/08/28 05:10:51;;;;;;;;;;;;;;;27.63;60.18;100351.38;7398269;19;1827;-51
2023/08/28 05:13:19;;;;;;;;;;;;;;;27.63;60.19;100335.91;7399178;19;1794;-52
2023/08/28 05:15:48;;;;;;;;;;;;;;;27.69;60.15;100339.69;7398646;19;1712;-51
2023/08/28 05:18:16;;;;;;;;;;;;;;;27.66;60.27;100329.25;7395743;19;1851;-51
2023/08/28 05:20:44;;;;;;;;;;;;;;;27.69;60.31;100340.50;7397281;19;1503;-51
2023/08/28 05:23:12;;;;;;;;;;;;;;;27.70;60.10;100330.50;7397433;19;1610;-50
2023/08/28 05:25:41;;;;;;;;;;;;;;;27.68;60.02;100333.44;7395146;19;1534;-52
2023/08/28 05:28:12;;;;;;;;;;;;;;;27.66;60.08;100323.81;7394869;19;1528;-52
2023/08/28 05:30:40;;;;;;;;;;;;;;;27.70;60.20;100325.91;7397401;19;1217;-50
2023/08/28 05:33:08;;;;;;;;;;;;;;;27.67;60.14;100325.47;7396583;19;1598;-51
2023/08/28 05:35:38;;;;;;;;;;;;;;;27.71;60.00;100332.16;7396849;19;1538;-51
2023/08/28 05:38:06;;;;;;;;;;;;;;;27.72;60.06;100342.00;7395891;19;1823;-51
2023/08/28 05:40:35;;;;;;;;;;;;;;;27.85;59.72;100335.75;7397616;19;1511;-51
2023/08/28 05:43:03;;;;;;;;;;;;;;;27.85;59.74;100324.91;7397247;19;1941;-51
2023/08/28 05:45:34;;;;;;;;;;;;;;;27.86;59.69;100323.88;7398373;19;1400;-51
2023/08/28 05:48:02;;;;;;;;;;;;;;;27.91;59.45;100329.53;7397626;19;1542;-51
2023/08/28 05:50:30;;;;;;;;;;;;;;;27.89;59.68;100320.75;7396890;19;1561;-51
2023/08/28 05:52:59;;;;;;;;;;;;;;;27.91;59.77;100319.53;7396584;19;1376;-52
2023/08/28 05:55:27;;;;;;;;;;;;;;;27.98;59.52;100332.28;7397100;19;1620;-52
2023/08/28 05:57:56;;;;;;;;;;;;;;;27.94;59.46;100324.53;7396815;19;1834;-51
2023/08/28 06:00:25;;;;;;;;;;;;;;;27.90;59.63;100334.16;7397472;19;1287;-52
2023/08/28 06:02:56;;;;;;;;;;;;;;;27.95;59.55;100312.63;7393494;19;1655;-51
2023/08/28 06:05:24;;;;;;;;;;;;;;;27.95;59.51;100312.63;7395799;19;1482;-52
2023/08/28 06:07:53;;;;;;;;;;;;;;;27.99;59.63;100312.22;7396421;19;1542;-51
2023/08/28 06:10:22;;;;;;;;;;;;;;;27.97;59.48;100315.13;7396510;19;1539;-51
2023/08/28 06:12:51;;;;;;;;;;;;;;;27.96;59.69;100308.03;7397516;19;1795;-51
2023/08/28 06:15:19;;;;;;;;;;;;;;;28.01;59.29;100305.50;7395839;19;1823;-50
2023/08/28 06:17:47;;;;;;;;;;;;;;;28.06;59.38;100318.50;7393649;19;1744;-51
2023/08/28 06:20:19;;;;;;;;;;;;;;;28.01;59.35;100332.69;7393036;19;1861;-50
2023/08/28 06:22:47;;;;;;;;;;;;;;;27.57;60.83;100318.56;7395569;19;1715;-50
2023/08/28 06:25:15;;;;;;;;;;;;;;;27.61;61.11;100310.81;7396615;19;1765;-50
2023/08/28 06:27:43;;;;;;;;;;;;;;;27.49;61.24;100309.72;7396189;19;1669;-51
2023/08/28 06:30:12;;;;;;;;;;;;;;;27.51;61.41;100313.09;7397113;19;1400;-51
2023/08/28 06:32:40;;;;;;;;;;;;;;;27.75;60.49;100333.44;7397054;19;1736;-50
2023/08/28 06:35:09;;;;;;;;;;;;;;;27.95;59.87;100330.81;7397021;19;1795;-50
2023/08/28 06:37:40;;;;;;;;;;;;;;;28.04;60.02;100309.72;7396194;19;1919;-50
2023/08/28 06:40:09;;;;;;;;;;;;;;;28.03;59.72;100318.91;7398310;19;1853;-51
2023/08/28 06:42:38;;;;;;;;;;;;;;;28.01;59.69;100315.56;7404099;19;1520;-50
2023/08/28 06:45:07;;;;;;;;;;;;;;;28.00;59.88;100314.72;7403861;19;1431;-50
2023/08/28 06:47:35;;;;;;;;;;;;;;;27.99;59.80;100315.75;7403038;19;1435;-51
2023/08/28 06:50:03;;;;;;;;;;;;;;;28.08;59.82;100319.97;7402296;19;1672;-50
2023/08/28 06:52:32;;;;;;;;;;;;;;;28.00;60.03;100324.78;7400182;19;1875;-50
2023/08/28 06:55:03;;;;;;;;;;;;;;;28.08;59.62;100330.00;7402249;19;1829;-50
2023/08/28 06:57:31;;;;;;;;;;;;;;;28.00;60.13;100320.16;7402064;19;1674;-52
2023/08/28 06:59:59;;;;;;;;;;;;;;;28.02;59.90;100322.69;7400167;19;1853;-50
2023/08/28 07:02:30;;;;;;;;;;;;;;;28.08;59.93;100309.09;7402507;19;1523;-51
2023/08/28 07:04:58;;;;;;;;;;;;;;;28.05;60.12;100317.66;7403367;19;1644;-51
2023/08/28 07:07:27;;;;;;;;;;;;;;;28.10;59.90;100304.28;7400092;19;1456;-50
2023/08/28 07:09:55;;;;;;;;;;;;;;;28.08;60.00;100305.53;7400053;19;1677;-50
2023/08/28 07:12:26;;;;;;;;;;;;;;;27.99;60.06;100302.16;7403961;19;1712;-50
2023/08/28 07:15:08;;;;;;;;;;;;;;;28.03;59.81;100303.41;7402067;19;1693;-51
2023/08/28 07:17:36;;;;;;;;;;;;;;;28.09;59.99;100307.19;7399575;19;1819;-52
2023/08/28 07:20:06;;;;;;;;;;;;;;;28.08;59.76;100303.66;7400976;19;1830;-51
2023/08/28 07:22:34;;;;;;;;;;;;;;;28.15;59.53;100309.94;7403390;19;1317;-51
2023/08/28 07:25:02;;;;;;;;;;;;;;;28.11;59.66;100300.53;7402851;19;1818;-51
2023/08/28 07:27:33;;;;;;;;;;;;;;;28.12;59.57;100299.47;7402436;19;1760;-51
2023/08/28 07:30:05;;;;;;;;;;;;;;;28.07;60.12;100292.97;7402773;19;1732;-52
2023/08/28 07:32:34;;;;;;;;;;;;;;;27.86;60.37;100294.81;7403784;19;1791;-51
2023/08/28 07:35:05;;;;;;;;;;;;;;;27.98;60.31;100305.13;7402349;19;1396;-51
2023/08/28 07:37:36;;;;;;;;;;;;;;;28.00;60.22;100301.13;7401677;19;1594;-51
2023/08/28 07:40:05;;;;;;;;;;;;;;;28.04;60.09;100294.25;7396365;19;1842;-51
2023/08/28 07:42:36;;;;;;;;;;;;;;;27.91;60.30;100300.50;7398390;19;1578;-52
2023/08/28 07:45:06;;;;;;;;;;;;;;;27.91;60.51;100288.78;7400588;19;1198;-50
2023/08/28 07:47:34;;;;;;;;;;;;;;;28.01;60.28;100305.50;7401730;19;1776;-51
2023/08/28 07:50:03;;;;;;;;;;;;;;;28.12;59.89;100299.47;7400562;19;1333;-50
2023/08/28 07:52:31;;;;;;;;;;;;;;;28.03;59.83;100303.41;7399835;19;1748;-51
2023/08/28 07:54:59;;;;;;;;;;;;;;;27.93;60.40;100286.69;7399068;19;1951;-51
2023/08/28 07:57:27;;;;;;;;;;;;;;;27.99;60.10;100307.59;7400621;19;1829;-51
2023/08/28 07:59:58;;;;;;;;;;;;;;;28.11;59.90;100289.66;7399299;19;1854;-51
2023/08/28 08:02:27;;;;;;;;;;;;;;;28.16;59.87;100298.00;7400273;19;1328;-50
2023/08/28 08:04:55;;;;;;;;;;;;;;;28.03;60.06;100286.28;7403019;19;1139;-51
2023/08/28 08:07:23;;;;;;;;;;;;;;;27.98;60.36;100296.97;7400292;19;1852;-51
2023/08/28 08:09:52;;;;;;;;;;;;;;;28.02;60.16;100273.75;7400385;19;1712;-51
2023/08/28 08:12:20;;;;;;;;;;;;;;;27.89;60.28;100286.25;7400857;19;1760;-51
2023/08/28 08:14:48;;;;;;;;;;;;;;;27.96;60.43;100278.97;7400443;19;1709;-52
2023/08/28 08:17:19;;;;;;;;;;;;;;;27.97;60.25;100266.19;7398158;19;1524;-51
2023/08/28 08:19:47;;;;;;;;;;;;;;;28.01;59.97;100283.78;7398487;19;1850;-51
2023/08/28 08:22:16;;;;;;;;;;;;;;;28.06;60.32;100275.84;7400186;19;1091;-51
2023/08/28 08:24:44;;;;;;;;;;;;;;;28.13;59.79;100271.25;7400671;19;2003;-51
2023/08/28 08:27:12;;;;;;;;;;;;;;;28.14;59.88;100278.34;7398920;19;1816;-51
2023/08/28 08:29:41;;;;;;;;;;;;;;;28.09;59.89;100278.16;7398778;19;1391;-51
2023/08/28 08:32:09;;;;;;;;;;;;;;;28.16;59.91;100265.38;7401361;19;1349;-51
2023/08/28 08:34:40;;;;;;;;;;;;;;;28.15;59.84;100266.44;7401413;19;1023;-51
2023/08/28 08:37:08;;;;;;;;;;;;;;;28.09;59.85;100263.72;7400808;19;1907;-51
2023/08/28 08:39:37;;;;;;;;;;;;;;;28.11;59.79;100267.91;7398090;19;1858;-49
2023/08/28 08:42:06;;;;;;;;;;;;;;;28.13;59.93;100248.66;7400519;19;1349;-51
2023/08/28 08:44:34;;;;;;;;;;;;;;;28.16;59.85;100242.81;7399265;19;1751;-51
2023/08/28 08:47:03;;;;;;;;;;;;;;;28.12;59.88;100258.69;7399359;19;1761;-50
2023/08/28 08:49:33;;;;;;;;;;;;;;;27.98;60.10;100240.72;7399244;19;1744;-50
2023/08/28 08:52:07;;;;;;;;;;;;;;;28.13;59.61;100254.94;7400159;19;1427;-50
2023/08/28 08:54:39;;;;;;;;;;;;;;;28.02;60.15;100244.69;7398449;19;1835;-50
2023/08/28 08:57:10;;;;;;;;;;;;;;;28.09;59.89;100234.66;7398138;19;1725;-51
2023/08/28 08:59:39;;;;;;;;;;;;;;;28.20;59.41;100232.38;7399767;19;1854;-51
2023/08/28 09:02:08;;;;;;;;;;;;;;;28.19;59.47;100222.50;7399218;19;1547;-51
2023/08/28 09:04:37;;;;;;;;;;;;;;;28.22;59.48;100231.09;7398257;19;1546;-51
2023/08/28 09:07:08;;;;;;;;;;;;;;;28.20;59.59;100248.66;7399931;19;1824;-50
2023/08/28 09:09:36;;;;;;;;;;;;;;;28.05;60.02;100236.09;7398940;19;1756;-51
2023/08/28 09:12:05;;;;;;;;;;;;;;;28.12;59.65;100215.19;7398663;19;1993;-50
2023/08/28 09:14:33;;;;;;;;;;;;;;;28.17;59.72;100212.69;7399920;19;1057;-51
2023/08/28 09:17:01;;;;;;;;;;;;;;;28.14;59.75;100221.25;7397938;19;1868;-51
2023/08/28 09:19:30;;;;;;;;;;;;;;;28.13;59.76;100211.44;7397455;19;1851;-51
2023/08/28 09:21:58;;;;;;;;;;;;;;;28.19;59.83;100217.06;7398206;19;1567;-51
2023/08/28 09:24:29;;;;;;;;;;;;;;;28.17;59.79;100214.56;7397306;19;1412;-52
2023/08/28 09:26:57;;;;;;;;;;;;;;;28.18;59.79;100208.09;7397525;19;1673;-50
2023/08/28 09:29:26;;;;;;;;;;;;;;;28.16;59.71;100211.03;7396782;19;1775;-50
2023/08/28 09:32:03;;;;;;;;;;;;;;;28.15;59.58;100217.53;7399076;19;1416;-51
2023/08/28 09:34:38;;;;;;;;;;;;;;;28.22;59.68;100214.78;7399242;19;1012;-51
2023/08/28 09:37:06;;;;;;;;;;;;;;;28.22;59.42;100209.34;7397777;19;1226;-51
2023/08/28 09:39:37;;;;;;;;;;;;;;;28.23;59.57;100212.91;7397000;19;1843;-52
2023/08/28 09:42:07;;;;;;;;;;;;;;;28.17;59.72;100201.84;7398897;19;1237;-51
2023/08/28 09:44:37;;;;;;;;;;;;;;;28.16;59.34;100202.03;7397454;19;1238;-50
2023/08/28 09:47:05;;;;;;;;;;;;;;;28.20;59.60;100205.16;7396249;19;1372;-51
2023/08/28 09:49:34;;;;;;;;;;;;;;;28.22;59.62;100206.63;7397616;19;1491;-51
2023/08/28 09:52:03;;;;;;;;;;;;;;;28.24;59.35;100200.97;7397526;19;1497;-51
2023/08/28 09:54:31;;;;;;;;;;;;;;;28.23;59.49;100183.00;7396018;19;1721;-50
2023/08/28 09:57:03;;;;;;;;;;;;;;;28.15;59.72;100184.91;7397112;19;1288;-51
2023/08/28 09:59:32;;;;;;;;;;;;;;;28.24;59.37;100181.97;7396555;19;1869;-51
2023/08/28 10:02:00;;;;;;;;;;;;;;;28.10;59.70;100184.69;7397005;19;1238;-51
2023/08/28 10:04:28;;;;;;;;;;;;;;;28.10;59.83;100167.53;7398051;19;1377;-51
2023/08/28 10:06:57;;;;;;;;;;;;;;;28.23;59.32;100183.84;7396981;19;1596;-51
2023/08/28 10:09:29;;;;;;;;;;;;;;;28.14;59.54;100172.34;7397824;19;1237;-52
2023/08/28 10:12:00;;;;;;;;;;;;;;;27.98;60.05;100169.22;7397665;19;1190;-51
2023/08/28 10:14:31;;;;;;;;;;;;;;;27.99;59.93;100181.75;7395622;19;1815;-51
2023/08/28 10:17:03;;;;;;;;;;;;;;;28.20;59.57;100186.97;7397419;19;1143;-51
2023/08/28 10:19:36;;;;;;;;;;;;;;;28.13;59.56;100183.41;7397971;19;1845;-51
2023/08/28 10:22:06;;;;;;;;;;;;;;;28.10;59.93;100178.41;7396809;19;1922;-51
2023/08/28 10:24:38;;;;;;;;;;;;;;;28.22;59.42;100170.47;7397497;19;1978;-51
2023/08/28 10:27:10;;;;;;;;;;;;;;;28.10;59.85;100149.34;7396882;19;1285;-51
2023/08/28 10:29:43;;;;;;;;;;;;;;;28.24;59.57;100152.03;7396653;19;1339;-51
2023/08/28 10:32:12;;;;;;;;;;;;;;;28.15;59.91;100157.72;7396254;19;1570;-51
2023/08/28 10:34:42;;;;;;;;;;;;;;;28.23;59.50;100150.34;7397621;19;1363;-51
2023/08/28 10:37:10;;;;;;;;;;;;;;;28.13;59.58;100146.22;7395196;19;1562;-51
2023/08/28 10:39:39;;;;;;;;;;;;;;;28.02;59.88;100146.84;7395302;19;1862;-51
2023/08/28 10:42:08;;;;;;;;;;;;;;;28.01;59.94;100153.31;7396593;19;1749;-51
2023/08/28 10:44:36;;;;;;;;;;;;;;;28.08;59.90;100159.59;7395895;19;1646;-50
2023/08/28 10:47:07;;;;;;;;;;;;;;;28.06;59.88;100145.38;7395743;19;1483;-51
2023/08/28 10:49:36;;;;;;;;;;;;;;;27.88;60.45;100137.03;7396086;19;1672;-51
2023/08/28 10:52:07;;;;;;;;;;;;;;;27.98;60.01;100137.44;7395046;19;1824;-51
2023/08/28 10:54:39;;;;;;;;;;;;;;;28.22;59.50;100145.97;7394755;19;1765;-51
2023/08/28 10:57:10;;;;;;;;;;;;;;;28.19;59.37;100138.25;7396227;19;1823;-51
2023/08/28 10:59:44;;;;;;;;;;;;;;;27.95;59.13;100132.41;7396143;19;1845;-51
2023/08/28 11:02:15;;;;;;;;;;;;;;;27.77;60.72;100154.75;7395376;19;1662;-51
2023/08/28 11:04:43;;;;;;;;;;;;;;;27.65;60.87;100131.97;7396045;19;1098;-51
2023/08/28 11:07:27;;;;;;;;;;;;;;;27.82;60.42;100105.25;7393450;19;1519;-51
2023/08/28 11:10:16;;;;;;;;;;;;;;;28.04;60.09;100123.00;7394182;19;1470;-51
2023/08/28 11:12:53;;;;;;;;;;;;;;;28.07;59.73;100119.88;7395433;19;1550;-52
2023/08/28 11:15:29;;;;;;;;;;;;;;;28.15;59.93;100127.81;7396020;19;1323;-51
2023/08/28 11:18:12;;;;;;;;;;;;;;;28.25;59.46;100121.06;7393758;19;1726;-51
2023/08/28 11:20:43;;;;;;;;;;;;;;;28.13;59.63;100116.31;7394208;19;1865;-51
2023/08/28 11:23:11;;;;;;;;;;;;;;;28.20;59.90;100134.50;7395839;19;1629;-51
2023/08/28 11:25:42;;;;;;;;;;;;;;;28.09;59.91;100117.78;7396086;19;1740;-51
2023/08/28 11:28:25;;;;;;;;;;;;;;;28.11;59.81;100110.25;7401809;19;1209;-51
2023/08/28 11:30:53;;;;;;;;;;;;;;;28.04;60.18;100100.44;7402278;19;1317;-51
2023/08/28 11:33:22;;;;;;;;;;;;;;;28.05;60.30;100102.91;7402959;19;1163;-51
2023/08/28 11:35:53;;;;;;;;;;;;;;;28.08;60.29;100116.09;7401895;19;1289;-50
2023/08/28 11:40:54;;;;;;;;;;;;;;;28.08;60.13;100101.69;7379749;19;1848;-67
2023/08/28 11:46:19;;;;;;;;;;;;;;;28.09;59.95;100096.03;7364519;19;1446;-64
2023/08/28 11:48:48;;;;;;;;;;;;;;;28.09;59.86;100093.31;7398577;19;1812;-67
2023/08/28 11:51:27;;;;;;;;;;;;;;;28.09;59.98;100096.03;7400442;19;1768;-65
2023/08/28 11:53:55;;;;;;;;;;;;;;;27.96;60.20;100088.72;7401074;19;1294;-65
2023/08/28 11:56:23;;;;;;;;;;;;;;;28.05;60.18;100073.03;7399001;19;1307;-65
2023/08/28 11:58:51;;;;;;;;;;;;;;;28.08;60.23;100083.47;7398837;19;2659;-67
2023/08/28 12:01:20;;;;;;;;;;;;;;;28.08;60.26;100079.94;7393586;19;1870;-64
2023/08/28 12:03:50;;;;;;;;;;;;;;;28.13;59.81;100088.28;7397963;19;1860;-64
2023/08/28 12:06:21;;;;;;;;;;;;;;;28.07;59.81;100076.38;7401208;19;1542;-64
2023/08/28 12:08:50;;;;;;;;;;;;;;;28.05;60.07;100067.59;7399662;19;1986;-64
2023/08/28 12:11:20;;;;;;;;;;;;;;;28.10;60.05;100075.13;7400794;19;1557;-64
2023/08/28 12:13:49;;;;;;;;;;;;;;;28.07;60.07;100061.94;7399180;19;1961;-65
2023/08/28 12:16:18;;;;;;;;;;;;;;;28.17;59.83;100055.03;7400977;19;1604;-65
2023/08/28 12:18:46;;;;;;;;;;;;;;;28.11;60.15;100066.75;7399264;19;1990;-65
2023/08/28 12:21:15;;;;;;;;;;;;;;;28.13;60.02;100059.22;7399016;19;1849;-64
2023/08/28 12:23:58;;;;;;;;;;;;;;;28.15;59.69;100043.53;7399310;19;2010;-64
2023/08/28 12:26:26;;;;;;;;;;;;;;;28.24;59.43;100040.56;7400333;19;1498;-64
2023/08/28 12:28:55;;;;;;;;;;;;;;;28.28;59.27;100050.81;7398803;19;2026;-65
2023/08/28 12:31:28;;;;;;;;;;;;;;;28.27;59.41;100059.16;7400333;19;1597;-65
2023/08/28 12:33:57;;;;;;;;;;;;;;;28.24;59.54;100059.59;7399582;19;2094;-64
2023/08/28 12:36:35;;;;;;;;;;;;;;;28.33;59.29;100042.84;7400020;19;1219;-65
2023/08/28 12:39:07;;;;;;;;;;;;;;;28.22;59.49;100043.50;7399952;19;1583;-65
2023/08/28 12:41:35;;;;;;;;;;;;;;;28.17;59.71;100038.72;7398562;19;1843;-65
2023/08/28 12:44:04;;;;;;;;;;;;;;;28.23;59.60;100047.03;7400057;19;1593;-64
2023/08/28 12:46:32;;;;;;;;;;;;;;;28.21;59.84;100038.28;7399821;19;1601;-65
2023/08/28 12:49:02;;;;;;;;;;;;;;;28.26;59.32;100043.91;7398864;19;1579;-65
2023/08/28 12:51:31;;;;;;;;;;;;;;;28.23;59.73;100028.88;7399347;19;1230;-65
2023/08/28 12:53:59;;;;;;;;;;;;;;;28.25;59.68;100028.63;7400592;19;1598;-64
2023/08/28 12:56:30;;;;;;;;;;;;;;;28.29;59.42;100019.00;7399412;19;1190;-65
2023/08/28 12:58:58;;;;;;;;;;;;;;;28.29;59.22;100019.84;7399812;19;1029;-65
2023/08/28 13:01:26;;;;;;;;;;;;;;;28.29;59.37;100010.84;7399110;19;1856;-64
2023/08/28 13:03:55;;;;;;;;;;;;;;;28.28;59.41;100001.84;7398583;19;1467;-65
2023/08/28 13:06:25;;;;;;;;;;;;;;;28.22;59.74;99997.28;7398962;19;1330;-64